Time;durP1;ratioP1;P1;durP2;ratioP2;P2;SDS_P1;SDS_P2;PMS_P1;PMS_P2;Temp;Humidity;BMP_temperature;BMP_pressure;BME280_temperature;BME280_humidity;BME280_pressure;Samples;Min_cycle;Max_cycle;Signal;HPM_P1;HPM_P2
2021/08/25 04:26:36;;;;;;;3.63;1.90;;;7.70;99.90;;;6.39;100.00;105995.50;2623200;30;20227;-84
2021/08/25 04:37:19;;;;;;;6.40;2.07;;;7.70;99.90;;;6.35;100.00;106057.56;2635261;38;20218;-84
2021/08/25 04:39:57;;;;;;;2.80;2.10;;;8.50;99.90;;;6.40;100.00;106076.22;2634245;30;20218;-83
2021/08/25 04:46:18;;;;;;;3.57;1.97;;;8.10;99.90;;;6.52;100.00;106099.38;2636539;38;20785;-83
2021/08/25 04:48:47;;;;;;;5.30;2.30;;;7.80;99.90;;;6.64;100.00;106113.66;2628487;30;20230;-82
2021/08/25 04:51:16;;;;;;;5.00;2.17;;;7.90;99.90;;;6.75;100.00;106127.91;2626266;30;20271;-82
2021/08/25 04:53:45;;;;;;;3.37;2.10;;;7.90;99.90;;;7.03;100.00;106154.72;2628476;38;20435;-82
2021/08/25 04:56:14;;;;;;;4.10;2.27;;;8.00;99.90;;;7.19;100.00;106167.19;2620340;38;20770;-81
2021/08/25 04:58:43;;;;;;;3.30;2.17;;;8.10;99.90;;;7.46;100.00;106158.41;2623959;30;20231;-83
2021/08/25 05:01:14;;;;;;;3.67;2.40;;;8.10;99.90;;;7.66;100.00;106123.81;2636794;30;20210;-83
2021/08/25 05:03:43;;;;;;;3.87;2.63;;;8.20;99.90;;;7.92;100.00;106122.03;2635625;30;20814;-83
2021/08/25 05:06:14;;;;;;;5.43;2.37;;;8.40;99.90;;;7.97;100.00;106080.25;2622779;38;20980;-82
2021/08/25 05:08:43;;;;;;;4.30;2.60;;;8.60;99.90;;;8.14;100.00;106069.59;2616771;30;20612;-81
2021/08/25 05:11:12;;;;;;;2.47;2.07;;;8.70;99.90;;;7.81;100.00;105991.34;2637094;30;21090;-83
2021/08/25 05:13:41;;;;;;;7.13;3.00;;;8.90;99.90;;;8.40;100.00;106045.53;2640910;38;20569;-84
2021/08/25 05:16:17;;;;;;;5.20;2.77;;;9.00;99.90;;;8.49;100.00;105998.34;2636296;30;20459;-83
2021/08/25 05:18:46;;;;;;;5.13;2.43;;;9.10;99.90;;;8.71;100.00;105968.84;2630818;38;20564;-81
2021/08/25 05:21:14;;;;;;;2.50;2.00;;;9.30;99.90;;;8.77;100.00;105915.41;2627192;30;21613;-82
2021/08/25 05:23:43;;;;;;;5.87;2.57;;;9.40;99.90;;;8.77;100.00;105821.91;2631247;30;20513;-82
2021/08/25 05:26:12;;;;;;;3.63;2.43;;;9.50;99.90;;;8.97;100.00;105743.31;2626497;38;20210;-84
2021/08/25 05:28:41;;;;;;;2.53;2.13;;;9.60;99.90;;;8.98;100.00;105583.88;2627942;38;20558;-83
2021/08/25 05:31:09;;;;;;;3.87;2.00;;;11.00;99.90;;;9.39;100.00;105463.00;2633925;30;20424;-84
2021/08/25 05:33:41;;;;;;;2.30;1.73;;;9.90;99.90;;;9.46;100.00;105336.31;2629692;30;20728;-83
2021/08/25 05:36:10;;;;;;;5.17;2.23;;;10.10;99.90;;;9.37;100.00;105200.13;2624746;30;20710;-82
2021/08/25 05:38:39;;;;;;;7.30;2.10;;;10.20;99.90;;;9.61;100.00;105131.84;2631552;30;20207;-82
2021/08/25 05:41:07;;;;;;;3.83;2.00;;;10.40;99.90;;;9.78;100.00;105068.13;2623538;31;20542;-82
2021/08/25 05:43:36;;;;;;;6.10;2.33;;;11.00;99.90;;;9.83;100.00;104979.75;2627002;30;20821;-85
2021/08/25 05:46:05;;;;;;;3.77;2.57;;;10.80;99.90;;;10.14;100.00;104915.59;2630370;30;20210;-84
2021/08/25 05:48:34;;;;;;;3.03;2.03;;;11.00;99.90;;;10.23;100.00;104833.25;2633154;30;20202;-84
2021/08/25 05:51:05;;;;;;;3.60;1.83;;;11.20;99.90;;;10.53;100.00;104768.94;2629900;30;20752;-84
2021/08/25 05:53:34;;;;;;;3.53;2.30;;;11.40;99.90;;;10.63;100.00;104665.94;2625863;38;20198;-83
2021/08/25 05:56:03;;;;;;;3.30;2.00;;;11.60;99.90;;;10.70;100.00;104563.88;2637927;30;20210;-81
2021/08/25 05:58:32;;;;;;;3.70;2.23;;;11.90;99.90;;;10.89;100.00;104456.88;2625081;30;20547;-83
2021/08/25 06:01:00;;;;;;;2.40;1.70;;;12.10;99.90;;;10.77;100.00;104324.25;2630728;31;21094;-82
2021/08/25 06:03:30;;;;;;;1.80;1.70;;;13.20;99.90;;;10.97;100.00;104205.56;2617826;30;20844;-83
2021/08/25 06:05:58;;;;;;;1.67;1.37;;;12.60;99.90;;;11.32;100.00;104082.50;2624267;38;20869;-84
2021/08/25 06:08:30;;;;;;;3.20;1.70;;;12.80;99.90;;;11.04;100.00;103909.53;2621239;38;20411;-82
2021/08/25 06:10:59;;;;;;;3.10;1.60;;;13.00;99.90;;;11.49;100.00;103803.66;2615460;30;20217;-83
2021/08/25 06:13:28;;;;;;;2.33;1.40;;;13.20;99.90;;;11.77;100.00;103685.06;2620217;38;20390;-82
2021/08/25 06:15:57;;;;;;;4.50;1.47;;;13.40;99.90;;;11.73;100.00;103544.84;2615005;38;20293;-83
2021/08/25 06:18:26;;;;;;;1.77;1.50;;;13.60;99.90;;;11.69;100.00;103417.22;2622104;30;20560;-82
2021/08/25 06:20:55;;;;;;;1.97;1.60;;;13.80;99.90;;;12.10;100.00;103342.34;2621167;38;20650;-84
2021/08/25 06:23:24;;;;;;;3.90;1.60;;;14.00;99.90;;;11.85;100.00;103219.53;2624830;30;20246;-81
2021/08/25 06:25:58;;;;;;;1.63;1.53;;;14.20;99.90;;;11.74;100.00;103124.56;2636970;38;20262;-81
2021/08/25 06:28:27;;;;;;;7.63;2.03;;;14.40;99.90;;;11.74;100.00;103078.97;2629587;30;20543;-81
2021/08/25 06:30:56;;;;;;;2.57;1.40;;;14.40;99.90;;;11.68;100.00;103021.19;2634240;38;20478;-82
2021/08/25 06:33:25;;;;;;;2.77;1.50;;;14.50;99.90;;;12.06;100.00;102996.38;2626391;38;20567;-83
2021/08/25 06:35:54;;;;;;;0.83;0.80;;;14.60;99.90;;;12.03;100.00;102949.16;2630906;30;20231;-82
2021/08/25 06:38:22;;;;;;;2.60;1.87;;;14.60;99.90;;;12.03;100.00;102905.34;2625628;30;20221;-83
2021/08/25 06:40:51;;;;;;;2.87;1.67;;;15.90;99.90;;;12.04;100.00;102865.00;2626478;30;20253;-82
2021/08/25 06:43:23;;;;;;;2.37;1.40;;;14.90;99.90;;;12.35;100.00;102833.34;2627891;38;20648;-85
2021/08/25 06:45:52;;;;;;;1.63;1.37;;;15.00;99.90;;;11.94;100.00;102761.09;2613231;30;20240;-82
2021/08/25 06:48:20;;;;;;;4.90;1.97;;;15.00;99.90;;;12.07;100.00;102746.72;2615056;30;20546;-81
2021/08/25 06:50:49;;;;;;;1.97;1.30;;;15.30;99.90;;;12.73;100.00;102766.16;2630318;38;20633;-82
2021/08/25 06:53:18;;;;;;;2.40;1.90;;;16.60;99.90;;;13.12;100.00;102732.75;2622395;30;20211;-81
2021/08/25 06:55:47;;;;;;;3.70;1.47;;;15.70;99.90;;;12.40;100.00;102624.44;2614438;38;20194;-82
2021/08/25 06:58:16;;;;;;;2.53;1.33;;;16.00;99.90;;;12.28;100.00;102598.50;2615767;30;20610;-82
2021/08/25 07:00:47;;;;;;;4.50;1.75;;;16.20;99.90;;;12.74;100.00;102612.03;2623914;38;20198;-83
2021/08/25 07:03:16;;;;;;;2.85;1.27;;;16.30;99.90;;;12.70;100.00;102581.03;2619905;38;20217;-82
2021/08/25 12:35:03;;;;;;;1.65;0.98;;;26.00;46.80;;;20.40;100.00;101341.88;2641144;38;20226;-82
2021/08/25 12:37:52;;;;;;;2.95;1.23;;;26.70;46.90;;;20.43;100.00;101363.25;2624736;38;20206;-85
2021/08/25 12:40:23;;;;;;;2.00;0.80;;;26.30;46.50;;;20.13;100.00;101358.13;2621053;30;20832;-84
2021/08/25 12:42:55;;;;;;;1.80;1.17;;;26.60;46.30;;;20.13;100.00;101342.69;2633271;38;21735;-85
2021/08/25 12:45:25;;;;;;;1.23;0.70;;;26.70;45.70;;;20.07;100.00;101333.41;2628991;30;20222;-82
2021/08/25 12:47:58;;;;;;;2.33;0.85;;;27.50;45.30;;;20.00;100.00;101342.53;2638944;30;20211;-85
2021/08/25 12:50:27;;;;;;;0.70;0.70;;;26.70;44.70;;;19.99;100.00;101339.00;2630137;30;20755;31
2021/08/25 12:52:56;;;;;;;1.05;0.60;;;26.70;44.30;;;20.60;100.00;101336.59;2633731;30;20210;-80
2021/08/25 13:40:58;;;;;;;1.08;0.57;;;23.80;49.30;;;19.08;100.00;101338.72;2632278;38;20439;-86
2021/08/25 13:55:28;;;;;;;1.20;0.80;;;23.20;50.60;;;18.92;100.00;101318.88;2633468;31;20576;-83
2021/08/25 15:17:18;;;;;;;2.28;1.15;;;22.50;56.10;;;19.00;100.00;101213.03;2624201;38;20904;-81
2021/08/25 17:38:49;;;;;;;2.67;1.20;;;19.00;75.00;;;17.01;100.00;100831.50;2624762;30;22029;-83
2021/08/25 17:41:18;;;;;;;2.35;1.45;;;18.90;75.80;;;16.93;100.00;100825.34;2608634;38;20931;-82
2021/08/25 17:43:47;;;;;;;1.70;0.90;;;18.90;76.20;;;16.90;100.00;100814.91;2622494;38;20202;-84
2021/08/25 17:46:16;;;;;;;2.47;1.13;;;18.90;76.70;;;16.90;100.00;100807.63;2627398;38;20546;-82
2021/08/25 17:48:45;;;;;;;2.22;1.52;;;19.40;77.70;;;16.90;100.00;100794.13;2626544;38;21101;-81
2021/08/25 17:51:14;;;;;;;1.65;0.98;;;18.70;77.80;;;16.90;100.00;100785.16;2624390;38;20599;-87
2021/08/25 17:53:45;;;;;;;2.70;1.55;;;18.80;78.20;;;16.82;100.00;100777.97;2627492;30;20209;-83
2021/08/25 17:56:16;;;;;;;3.58;1.65;;;18.80;78.90;;;16.83;100.00;100776.94;2631332;38;20594;-83
2021/08/25 17:58:45;;;;;;;3.15;1.58;;;19.70;80.00;;;16.81;100.00;100766.31;2621434;38;20799;-82
2021/08/25 18:01:14;;;;;;;4.13;1.38;;;18.70;79.70;;;16.77;100.00;100758.81;2624480;30;20736;-83
2021/08/25 18:03:43;;;;;;;3.50;1.45;;;18.70;80.40;;;16.74;100.00;100751.06;2612471;30;20386;-81
2021/08/25 18:06:12;;;;;;;3.05;1.08;;;18.60;80.80;;;16.68;100.00;100746.41;2614640;30;20662;-84
2021/08/25 18:08:41;;;;;;;1.67;1.13;;;18.60;81.50;;;16.65;100.00;100753.03;2611081;31;21140;-84
2021/08/25 18:11:12;;;;;;;2.92;1.58;;;18.60;82.20;;;16.61;100.00;100762.47;2616880;30;20666;-82
2021/08/25 18:13:44;;;;;;;2.15;1.40;;;18.50;83.00;;;16.63;100.00;100756.94;2622733;38;20542;-83
2021/08/25 18:16:13;;;;;;;1.17;1.00;;;18.50;83.70;;;16.61;100.00;100756.25;2629034;30;20275;-82
2021/08/25 18:18:42;;;;;;;2.20;1.58;;;18.50;84.50;;;16.57;100.00;100744.16;2622823;30;20424;-81
2021/08/25 18:21:22;;;;;;;2.97;1.30;;;18.40;85.00;;;16.51;100.00;100735.75;2625361;30;21548;-83
2021/08/25 18:23:53;;;;;;;1.75;1.25;;;18.60;85.90;;;16.52;100.00;100728.50;2620580;30;20265;-82
2021/08/25 18:26:23;;;;;;;2.90;1.40;;;18.30;86.80;;;16.48;100.00;100740.69;2619769;38;20228;-82
2021/08/25 18:28:55;;;;;;;2.97;0.93;;;18.70;87.70;;;16.45;100.00;100777.00;2627906;38;20223;-85
2021/08/25 18:31:24;;;;;;;2.17;1.17;;;18.20;88.40;;;16.44;100.00;100752.91;2629611;31;20402;-83
2021/08/25 18:33:53;;;;;;;3.45;1.25;;;18.90;89.10;;;16.40;100.00;100743.47;2615524;38;20271;-81
2021/08/25 18:36:22;;;;;;;2.95;1.73;;;18.90;89.60;;;16.37;100.00;100733.03;2622684;38;20333;-83
2021/08/25 18:38:51;;;;;;;3.28;1.30;;;18.20;89.80;;;16.33;100.00;100715.50;2613811;30;20653;-81
2021/08/25 18:41:20;;;;;;;2.13;1.67;;;18.10;90.20;;;16.29;100.00;100706.97;2613414;38;20221;-82
2021/08/25 18:43:49;;;;;;;1.48;1.17;;;18.00;90.50;;;16.33;100.00;100699.31;2614743;30;20661;-84
2021/08/25 18:46:20;;;;;;;2.25;1.30;;;17.20;90.40;;;16.32;100.00;100700.38;2636171;30;20378;-81
2021/08/25 18:48:49;;;;;;;1.67;1.40;;;18.40;90.80;;;16.33;100.00;100692.06;2631453;30;20182;-84
2021/08/25 18:51:18;;;;;;;4.32;1.48;;;18.00;91.00;;;16.33;100.00;100680.41;2625002;38;20246;-83
2021/08/25 18:53:47;;;;;;;1.13;0.93;;;18.00;91.10;;;16.33;100.00;100678.53;2617904;38;21236;-82
2021/08/25 18:56:16;;;;;;;1.23;1.08;;;17.90;91.10;;;16.31;100.00;100671.69;2623206;38;21113;-81
2021/08/25 18:58:45;;;;;;;1.20;0.98;;;17.90;91.30;;;16.36;100.00;100655.75;2618871;30;20784;-83
2021/08/25 19:01:13;;;;;;;1.33;1.17;;;17.90;91.20;;;16.35;100.00;100638.69;2613588;30;21163;-83
2021/08/25 19:03:45;;;;;;;3.17;1.42;;;17.90;91.30;;;16.35;100.00;100630.59;2620062;30;20687;-82
2021/08/25 19:06:14;;;;;;;1.83;1.33;;;17.90;91.30;;;16.35;100.00;100625.19;2619069;30;20217;-84
2021/08/25 19:08:43;;;;;;;1.58;1.00;;;18.00;91.30;;;16.35;100.00;100617.09;2625045;38;20183;-81
2021/08/25 19:11:11;;;;;;;1.95;1.05;;;17.90;91.30;;;16.36;100.00;100616.06;2631991;30;20195;-82
2021/08/25 19:13:40;;;;;;;1.65;1.13;;;18.00;91.30;;;16.43;100.00;100600.81;2618188;38;20872;-81
2021/08/25 19:16:11;;;;;;;2.35;1.40;;;18.00;91.20;;;16.41;100.00;100583.94;2621177;30;20768;-82
2021/08/25 19:18:40;;;;;;;2.78;1.00;;;18.00;91.10;;;16.43;100.00;100589.16;2621839;38;20206;-83
2021/08/25 19:21:11;;;;;;;2.88;1.02;;;19.00;91.40;;;16.43;100.00;100572.97;2634728;38;20218;-83
2021/08/25 19:23:40;;;;;;;3.03;1.38;;;18.00;91.00;;;16.40;100.00;100576.88;2627667;30;20660;-81
2021/08/25 19:26:09;;;;;;;1.73;1.08;;;18.00;91.00;;;16.42;100.00;100572.13;2618305;30;20838;-83
2021/08/25 19:28:38;;;;;;;1.23;0.77;;;18.10;91.00;;;16.44;100.00;100570.03;2617260;30;20782;-81
2021/08/25 19:31:07;;;;;;;2.33;1.02;;;18.00;90.90;;;16.43;100.00;100562.16;2621088;38;21015;-81
2021/08/25 19:33:36;;;;;;;1.27;0.82;;;18.10;90.90;;;16.42;100.00;100558.63;2615346;30;20514;-82
2021/08/25 19:36:05;;;;;;;2.15;1.45;;;18.10;90.80;;;16.40;100.00;100555.25;2617225;30;20418;-82
2021/08/25 19:38:36;;;;;;;4.25;1.90;;;18.10;90.80;;;16.44;100.00;100558.44;2620038;38;21001;-82
2021/08/25 19:41:05;;;;;;;2.05;1.40;;;18.50;90.80;;;16.40;100.00;100544.47;2629455;30;20724;-80
2021/08/25 19:43:37;;;;;;;1.63;1.10;;;18.10;90.80;;;16.38;100.00;100546.50;2613965;30;20206;-82
2021/08/25 19:46:06;;;;;;;3.00;1.58;;;18.90;91.10;;;16.34;100.00;100552.47;2620449;30;20278;-81
2021/08/25 19:48:35;;;;;;;5.00;1.40;;;18.70;91.00;;;16.34;100.00;100547.91;2625694;30;20249;-80
2021/08/25 19:51:04;;;;;;;3.83;1.23;;;18.10;91.00;;;16.32;100.00;100541.03;2620226;38;20237;-83
2021/08/25 19:53:33;;;;;;;1.60;1.10;;;17.10;90.70;;;16.27;100.00;100533.50;2617438;38;21021;-82
2021/08/25 19:56:05;;;;;;;1.30;1.05;;;18.00;91.00;;;16.25;100.00;100529.31;2622263;30;20382;-82
2021/08/25 19:58:34;;;;;;;2.17;1.08;;;18.00;91.10;;;16.23;100.00;100550.25;2630731;38;20416;-82
2021/08/25 20:01:02;;;;;;;3.38;1.50;;;18.00;91.20;;;16.22;100.00;100535.06;2623736;30;20203;-81
2021/08/25 20:03:31;;;;;;;3.00;1.77;;;18.00;91.30;;;16.20;100.00;100540.66;2625470;30;20259;-82
2021/08/25 20:06:00;;;;;;;1.45;1.10;;;18.00;91.30;;;16.12;100.00;100549.72;2623129;38;20218;-82
2021/08/25 20:08:29;;;;;;;2.03;1.20;;;18.00;91.50;;;16.10;100.00;100549.06;2618846;38;20215;-84
2021/08/25 20:10:58;;;;;;;2.63;1.48;;;17.90;91.60;;;16.08;100.00;100553.81;2618750;30;20565;-81
2021/08/25 20:13:29;;;;;;;1.35;1.15;;;17.90;92.00;;;15.95;100.00;100563.59;2624022;30;20442;-82
2021/08/25 20:15:59;;;;;;;2.33;1.55;;;17.80;93.10;;;15.73;100.00;100576.97;2638108;38;20230;-81
2021/08/25 20:18:28;;;;;;;2.63;1.80;;;17.70;94.10;;;15.65;100.00;100608.59;2622460;38;20702;-82
2021/08/25 20:20:57;;;;;;;4.63;1.73;;;17.50;95.00;;;15.56;100.00;100644.75;2625544;38;20550;-83
2021/08/25 20:23:26;;;;;;;3.33;1.70;;;17.40;95.60;;;15.50;100.00;100672.41;2628855;38;20855;-84
2021/08/25 20:25:54;;;;;;;3.38;1.38;;;17.20;96.20;;;15.45;100.00;100689.97;2626690;38;20237;-82
2021/08/25 20:28:23;;;;;;;2.92;1.48;;;17.20;96.80;;;15.46;100.00;100712.38;2621202;38;20401;-81
2021/08/25 20:30:55;;;;;;;2.70;1.42;;;17.10;97.30;;;15.42;100.00;100738.03;2624743;30;20213;-84
2021/08/25 20:33:24;;;;;;;2.22;1.30;;;17.00;97.80;;;15.42;100.00;100805.47;2618476;30;21080;-82
2021/08/25 20:35:52;;;;;;;1.67;1.38;;;17.00;98.10;;;15.43;100.00;100823.31;2622579;30;20525;-81
2021/08/25 20:38:23;;;;;;;2.45;1.10;;;16.20;98.30;;;15.48;100.00;100818.22;2622519;30;21133;-82
2021/08/25 20:40:51;;;;;;;2.42;1.25;;;17.00;98.90;;;15.53;100.00;100812.31;2625986;38;20383;-81
2021/08/25 20:43:20;;;;;;;2.78;1.23;;;17.00;99.10;;;15.50;100.00;100788.38;2619471;38;20507;-82
2021/08/25 20:45:49;;;;;;;1.98;1.52;;;17.00;99.30;;;15.53;100.00;100780.78;2620620;30;20886;-83
2021/08/25 20:48:21;;;;;;;4.97;1.85;;;17.00;99.30;;;15.60;100.00;100754.78;2630153;30;20388;-81
2021/08/25 20:50:50;;;;;;;5.50;1.58;;;17.00;99.40;;;15.62;100.00;100735.72;2634133;30;20214;-80
2021/08/25 20:53:19;;;;;;;3.95;1.50;;;17.20;99.60;;;15.75;100.00;100671.22;2624061;38;20409;-82
2021/08/25 20:55:47;;;;;;;1.65;1.30;;;17.10;99.60;;;15.75;100.00;100636.97;2622570;30;20424;-80
2021/08/25 20:58:16;;;;;;;2.67;1.70;;;17.10;99.40;;;15.88;100.00;100593.19;2620948;31;20241;-82
2021/08/25 21:00:49;;;;;;;2.10;1.33;;;18.20;99.70;;;15.92;100.00;100567.50;2617165;30;20222;-83
2021/08/25 21:03:21;;;;;;;4.85;1.40;;;18.20;99.70;;;15.99;100.00;100540.59;2620034;30;20506;-81
2021/08/25 21:05:51;;;;;;;3.97;1.17;;;18.00;99.50;;;16.03;100.00;100512.22;2616445;38;20278;-83
2021/08/25 21:08:20;;;;;;;3.53;1.65;;;17.40;99.30;;;16.00;100.00;100499.09;2617264;38;20523;-82
2021/08/25 21:10:51;;;;;;;3.65;1.70;;;18.10;99.30;;;16.03;100.00;100490.63;2613473;30;20194;-82
2021/08/25 21:13:21;;;;;;;2.42;1.42;;;16.70;98.80;;;16.06;100.00;100477.59;2619566;30;20207;-83
2021/08/25 21:15:51;;;;;;;6.28;1.75;;;18.60;99.30;;;16.05;100.00;100465.13;2622035;30;20436;-83
2021/08/25 21:18:22;;;;;;;2.95;1.58;;;17.60;99.00;;;16.05;100.00;100465.13;2620247;30;20541;-82
2021/08/25 21:20:51;;;;;;;3.75;1.80;;;18.60;99.40;;;16.03;100.00;100471.72;2630942;30;20418;-83
2021/08/25 21:23:20;;;;;;;1.65;1.13;;;18.40;99.40;;;16.00;100.00;100472.09;2619103;38;20608;-80
2021/08/25 21:25:48;;;;;;;2.00;1.00;;;17.60;99.20;;;16.00;100.00;100458.59;2628125;38;20353;-82
2021/08/25 21:28:17;;;;;;;2.42;1.80;;;17.60;99.20;;;16.05;100.00;100461.59;2614554;38;20763;-82
2021/08/25 21:30:46;;;;;;;1.90;1.33;;;17.60;99.30;;;16.04;100.00;100452.66;2623308;30;20289;-82
2021/08/25 21:33:15;;;;;;;2.53;1.70;;;17.60;99.30;;;16.07;100.00;100444.16;2615422;30;20669;-82
2021/08/25 21:35:47;;;;;;;2.75;1.50;;;17.60;99.30;;;16.12;100.00;100440.91;2617388;30;20345;-80
2021/08/25 21:38:16;;;;;;;2.25;1.65;;;17.60;99.30;;;16.14;100.00;100433.44;2613937;30;20277;-81
2021/08/25 21:40:45;;;;;;;2.10;1.27;;;17.60;99.20;;;16.19;100.00;100432.88;2616877;30;20226;-80
2021/08/25 21:43:14;;;;;;;2.40;1.77;;;17.70;99.20;;;16.14;100.00;100425.34;2618253;30;20241;-82
2021/08/25 21:45:42;;;;;;;2.63;1.58;;;17.70;99.20;;;16.12;100.00;100430.09;2610751;30;20222;-80
2021/08/25 21:48:11;;;;;;;2.63;1.20;;;17.70;99.20;;;16.10;100.00;100429.44;2611425;30;21238;-80
2021/08/25 21:50:41;;;;;;;3.08;2.20;;;17.80;99.30;;;16.06;100.00;100426.31;2614917;38;20696;-81
2021/08/25 21:53:13;;;;;;;4.28;1.92;;;18.70;99.50;;;16.03;100.00;100426.69;2622644;38;20497;-82
2021/08/25 21:55:47;;;;;;;2.38;1.50;;;17.70;99.20;;;15.98;100.00;100439.06;2617280;31;20653;-83
2021/08/25 21:58:16;;;;;;;3.55;1.73;;;17.70;99.40;;;15.94;100.00;100462.91;2624754;30;20803;-83
2021/08/25 22:00:47;;;;;;;4.18;1.70;;;18.00;99.90;;;15.84;100.00;100497.41;2613387;30;20601;-81
2021/08/25 22:03:16;;;;;;;3.65;1.98;;;17.60;99.90;;;15.72;100.00;100572.59;2619679;30;21541;-81
2021/08/25 22:05:45;;;;;;;2.33;1.35;;;17.50;99.90;;;15.57;100.00;100738.97;2618294;30;21072;-82
2021/08/25 22:08:16;;;;;;;2.28;1.70;;;17.40;99.90;;;15.53;100.00;100914.78;2637231;30;21071;-83
2021/08/25 22:10:45;;;;;;;5.13;1.92;;;17.30;99.90;;;15.38;100.00;101115.06;2641231;30;20210;-84
2021/08/25 22:13:14;;;;;;;1.98;1.63;;;17.10;99.90;;;15.21;100.00;101226.59;2620619;30;20828;-84
2021/08/25 22:15:43;;;;;;;3.80;1.83;;;17.00;99.90;;;15.04;100.00;100821.47;2646935;38;21062;-83
2021/08/25 22:18:13;;;;;;;2.75;1.50;;;17.50;99.90;;;14.82;100.00;100527.72;2636010;30;21197;31
2021/08/25 22:20:42;;;;;;;3.85;2.42;;;16.60;99.90;;;14.55;100.00;100351.38;2643239;30;20205;-83
2021/08/25 22:23:11;;;;;;;2.88;1.77;;;15.70;99.90;;;14.31;100.00;100209.75;2641683;30;20191;-83
2021/08/25 22:25:42;;;;;;;3.30;2.22;;;16.20;99.90;;;14.12;100.00;100170.72;2663389;30;20562;-83
2021/08/25 22:28:12;;;;;;;2.45;2.20;;;16.10;99.90;;;13.96;100.00;100185.19;2664107;38;20238;31
2021/08/25 22:30:41;;;;;;;4.97;2.17;;;15.90;99.90;;;13.81;100.00;100196.94;2665638;30;20195;-84
2021/08/25 22:33:10;;;;;;;3.40;2.30;;;15.70;99.90;;;13.75;100.00;100246.03;2661598;30;20821;-84
2021/08/25 22:35:40;;;;;;;2.10;1.70;;;15.60;99.90;;;13.72;100.00;100680.22;2669626;38;21177;-83
2021/08/25 22:38:09;;;;;;;2.60;2.22;;;15.50;99.90;;;13.64;100.00;100877.34;2629102;38;20227;-80
2021/08/25 22:40:37;;;;;;;2.53;1.98;;;15.40;99.90;;;13.63;100.00;100932.13;2631972;38;21189;-82
2021/08/25 22:43:09;;;;;;;3.15;2.08;;;15.30;99.90;;;13.57;100.00;101032.25;2644899;30;21207;-83
2021/08/25 23:20:43;;;;;;;3.50;2.27;;;16.10;99.90;;;13.34;100.00;104513.41;2645709;38;22075;-82
2021/08/25 23:23:22;;;;;;;4.10;2.50;;;14.90;99.90;;;13.38;100.00;104646.81;2688657;30;21097;31
2021/08/25 23:29:49;;;;;;;4.10;3.10;;;14.90;99.90;;;13.37;100.00;105102.47;2654557;30;21416;31
2021/08/25 23:36:08;;;;;;;2.47;2.03;;;14.90;99.90;;;13.34;100.00;105277.50;2647824;38;21644;-83
2021/08/25 23:38:37;;;;;;;2.63;2.10;;;14.90;99.90;;;13.36;100.00;105280.09;2647239;30;20226;-82
2021/08/25 23:47:05;;;;;;;3.33;2.65;;;14.90;99.90;;;13.33;100.00;105343.00;2666315;30;20230;-84
2021/08/25 23:49:37;;;;;;;2.17;1.80;;;14.90;99.90;;;13.36;100.00;105383.25;2743892;30;20194;-81
2021/08/25 23:52:07;;;;;;;2.53;2.03;;;14.90;99.90;;;13.35;100.00;105384.22;2685211;30;20219;-83
2021/08/25 23:54:37;;;;;;;2.28;2.00;;;14.90;99.90;;;13.39;100.00;105418.13;2635186;30;20426;31
